sensor_id;sensor_type;location;lat;lon;timestamp;P1;durP1;ratioP1;P2;durP2;ratioP2
10007;SDS011;5043;41.766;26.204;2023-03-23T00:01:10;9.63;;;7.50;;
10007;SDS011;5043;41.766;26.204;2023-03-23T00:03:37;9.82;;;7.15;;
10007;SDS011;5043;41.766;26.204;2023-03-23T00:06:03;14.43;;;8.60;;
10007;SDS011;5043;41.766;26.204;2023-03-23T00:08:30;15.73;;;8.30;;
10007;SDS011;5043;41.766;26.204;2023-03-23T00:10:56;10.70;;;9.45;;
10007;SDS011;5043;41.766;26.204;2023-03-23T00:13:24;10.32;;;8.38;;
10007;SDS011;5043;41.766;26.204;2023-03-23T00:15:50;11.55;;;8.77;;
10007;SDS011;5043;41.766;26.204;2023-03-23T00:18:22;11.15;;;8.50;;
10007;SDS011;5043;41.766;26.204;2023-03-23T00:20:49;11.45;;;9.25;;
10007;SDS011;5043;41.766;26.204;2023-03-23T00:23:19;10.65;;;8.90;;
10007;SDS011;5043;41.766;26.204;2023-03-23T00:25:46;12.02;;;9.20;;
10007;SDS011;5043;41.766;26.204;2023-03-23T00:28:13;10.65;;;9.20;;
10007;SDS011;5043;41.766;26.204;2023-03-23T00:30:40;18.48;;;9.13;;
10007;SDS011;5043;41.766;26.204;2023-03-23T00:33:07;12.85;;;9.90;;
10007;SDS011;5043;41.766;26.204;2023-03-23T00:35:33;15.65;;;9.18;;
10007;SDS011;5043;41.766;26.204;2023-03-23T00:38:01;15.48;;;9.60;;
10007;SDS011;5043;41.766;26.204;2023-03-23T00:40:27;10.60;;;9.20;;
10007;SDS011;5043;41.766;26.204;2023-03-23T00:42:53;10.88;;;9.75;;
10007;SDS011;5043;41.766;26.204;2023-03-23T00:45:18;11.85;;;9.52;;
10007;SDS011;5043;41.766;26.204;2023-03-23T00:47:44;18.20;;;9.68;;
10007;SDS011;5043;41.766;26.204;2023-03-23T00:50:11;13.35;;;8.82;;
10007;SDS011;5043;41.766;26.204;2023-03-23T00:52:39;10.98;;;8.45;;
10007;SDS011;5043;41.766;26.204;2023-03-23T00:55:07;11.45;;;8.77;;
10007;SDS011;5043;41.766;26.204;2023-03-23T00:57:32;11.13;;;8.98;;
10007;SDS011;5043;41.766;26.204;2023-03-23T00:59:58;11.27;;;8.90;;
10007;SDS011;5043;41.766;26.204;2023-03-23T01:02:23;12.30;;;9.57;;
10007;SDS011;5043;41.766;26.204;2023-03-23T01:04:51;11.98;;;10.23;;
10007;SDS011;5043;41.766;26.204;2023-03-23T01:07:20;13.57;;;10.88;;
10007;SDS011;5043;41.766;26.204;2023-03-23T01:09:48;14.82;;;9.82;;
10007;SDS011;5043;41.766;26.204;2023-03-23T01:12:13;13.63;;;9.27;;
10007;SDS011;5043;41.766;26.204;2023-03-23T01:14:40;11.45;;;9.70;;
10007;SDS011;5043;41.766;26.204;2023-03-23T01:17:06;15.70;;;11.88;;
10007;SDS011;5043;41.766;26.204;2023-03-23T01:19:32;19.35;;;12.57;;
10007;SDS011;5043;41.766;26.204;2023-03-23T01:21:57;18.80;;;11.90;;
10007;SDS011;5043;41.766;26.204;2023-03-23T01:24:23;19.92;;;11.07;;
10007;SDS011;5043;41.766;26.204;2023-03-23T01:26:48;13.73;;;10.98;;
10007;SDS011;5043;41.766;26.204;2023-03-23T01:29:14;18.08;;;11.82;;
10007;SDS011;5043;41.766;26.204;2023-03-23T01:31:39;14.68;;;11.70;;
10007;SDS011;5043;41.766;26.204;2023-03-23T01:34:05;14.38;;;11.00;;
10007;SDS011;5043;41.766;26.204;2023-03-23T01:36:30;15.20;;;11.60;;
10007;SDS011;5043;41.766;26.204;2023-03-23T01:38:58;16.52;;;12.90;;
10007;SDS011;5043;41.766;26.204;2023-03-23T01:41:26;14.35;;;10.85;;
10007;SDS011;5043;41.766;26.204;2023-03-23T01:46:52;14.90;;;11.98;;
10007;SDS011;5043;41.766;26.204;2023-03-23T01:49:21;16.23;;;11.50;;
10007;SDS011;5043;41.766;26.204;2023-03-23T01:51:53;16.75;;;11.77;;
10007;SDS011;5043;41.766;26.204;2023-03-23T01:54:42;13.60;;;11.00;;
10007;SDS011;5043;41.766;26.204;2023-03-23T01:57:11;15.35;;;11.15;;
10007;SDS011;5043;41.766;26.204;2023-03-23T01:59:39;15.63;;;11.50;;
10007;SDS011;5043;41.766;26.204;2023-03-23T02:02:12;14.10;;;11.60;;
10007;SDS011;5043;41.766;26.204;2023-03-23T02:04:40;16.40;;;13.32;;
10007;SDS011;5043;41.766;26.204;2023-03-23T02:07:07;18.58;;;15.57;;
10007;SDS011;5043;41.766;26.204;2023-03-23T02:09:33;14.35;;;11.85;;
10007;SDS011;5043;41.766;26.204;2023-03-23T02:11:59;15.63;;;11.93;;
10007;SDS011;5043;41.766;26.204;2023-03-23T02:14:25;13.68;;;10.98;;
10007;SDS011;5043;41.766;26.204;2023-03-23T02:16:58;13.27;;;10.88;;
10007;SDS011;5043;41.766;26.204;2023-03-23T02:33:46;14.02;;;11.07;;
10007;SDS011;5043;41.766;26.204;2023-03-23T02:42:04;17.42;;;12.63;;
10007;SDS011;5043;41.766;26.204;2023-03-23T02:44:32;12.05;;;10.85;;
10007;SDS011;5043;41.766;26.204;2023-03-23T02:47:00;15.23;;;12.25;;
10007;SDS011;5043;41.766;26.204;2023-03-23T02:49:29;13.40;;;12.00;;
10007;SDS011;5043;41.766;26.204;2023-03-23T02:52:01;13.88;;;11.98;;
10007;SDS011;5043;41.766;26.204;2023-03-23T02:54:29;15.52;;;13.15;;
10007;SDS011;5043;41.766;26.204;2023-03-23T02:56:55;17.23;;;14.48;;
10007;SDS011;5043;41.766;26.204;2023-03-23T02:59:22;14.90;;;13.30;;
10007;SDS011;5043;41.766;26.204;2023-03-23T03:01:48;14.32;;;12.93;;
10007;SDS011;5043;41.766;26.204;2023-03-23T03:04:18;16.75;;;13.00;;
10007;SDS011;5043;41.766;26.204;2023-03-23T03:11:55;16.63;;;10.88;;
10007;SDS011;5043;41.766;26.204;2023-03-23T03:14:28;12.80;;;10.98;;
10007;SDS011;5043;41.766;26.204;2023-03-23T03:17:01;13.63;;;10.93;;
10007;SDS011;5043;41.766;26.204;2023-03-23T03:19:33;13.88;;;10.52;;
10007;SDS011;5043;41.766;26.204;2023-03-23T03:22:02;13.60;;;11.38;;
10007;SDS011;5043;41.766;26.204;2023-03-23T03:24:29;17.50;;;14.00;;
10007;SDS011;5043;41.766;26.204;2023-03-23T03:26:57;18.60;;;13.20;;
10007;SDS011;5043;41.766;26.204;2023-03-23T03:29:26;14.85;;;11.57;;
10007;SDS011;5043;41.766;26.204;2023-03-23T03:31:55;19.30;;;13.02;;
10007;SDS011;5043;41.766;26.204;2023-03-23T03:34:23;19.50;;;13.25;;
10007;SDS011;5043;41.766;26.204;2023-03-23T03:36:49;15.93;;;13.50;;
10007;SDS011;5043;41.766;26.204;2023-03-23T03:39:18;16.02;;;13.45;;
10007;SDS011;5043;41.766;26.204;2023-03-23T03:41:45;14.43;;;12.57;;
10007;SDS011;5043;41.766;26.204;2023-03-23T03:44:11;15.32;;;11.95;;
10007;SDS011;5043;41.766;26.204;2023-03-23T03:46:37;13.77;;;11.05;;
10007;SDS011;5043;41.766;26.204;2023-03-23T03:49:04;15.40;;;11.25;;
10007;SDS011;5043;41.766;26.204;2023-03-23T03:51:32;16.13;;;11.35;;
10007;SDS011;5043;41.766;26.204;2023-03-23T03:53:58;15.95;;;11.15;;
10007;SDS011;5043;41.766;26.204;2023-03-23T03:56:24;17.52;;;11.75;;
10007;SDS011;5043;41.766;26.204;2023-03-23T03:58:51;14.95;;;11.90;;
10007;SDS011;5043;41.766;26.204;2023-03-23T04:01:17;15.95;;;12.07;;
10007;SDS011;5043;41.766;26.204;2023-03-23T04:03:46;15.18;;;10.88;;
10007;SDS011;5043;41.766;26.204;2023-03-23T04:06:12;16.55;;;11.52;;
10007;SDS011;5043;41.766;26.204;2023-03-23T04:08:38;17.08;;;12.73;;
10007;SDS011;5043;41.766;26.204;2023-03-23T04:11:04;15.10;;;11.52;;
10007;SDS011;5043;41.766;26.204;2023-03-23T04:13:30;15.27;;;11.65;;
10007;SDS011;5043;41.766;26.204;2023-03-23T04:15:55;15.00;;;11.95;;
10007;SDS011;5043;41.766;26.204;2023-03-23T04:18:21;15.57;;;11.52;;
10007;SDS011;5043;41.766;26.204;2023-03-23T04:20:47;14.90;;;12.23;;
10007;SDS011;5043;41.766;26.204;2023-03-23T04:23:14;15.38;;;12.20;;
10007;SDS011;5043;41.766;26.204;2023-03-23T04:25:45;17.15;;;13.13;;
10007;SDS011;5043;41.766;26.204;2023-03-23T04:28:12;15.95;;;12.25;;
10007;SDS011;5043;41.766;26.204;2023-03-23T04:30:37;17.92;;;13.73;;
10007;SDS011;5043;41.766;26.204;2023-03-23T04:33:03;16.55;;;12.77;;
10007;SDS011;5043;41.766;26.204;2023-03-23T04:35:29;14.35;;;12.82;;
10007;SDS011;5043;41.766;26.204;2023-03-23T04:37:55;22.17;;;13.77;;
10007;SDS011;5043;41.766;26.204;2023-03-23T04:40:21;21.80;;;13.80;;
10007;SDS011;5043;41.766;26.204;2023-03-23T04:42:48;21.17;;;12.32;;
10007;SDS011;5043;41.766;26.204;2023-03-23T04:45:17;18.70;;;13.77;;
10007;SDS011;5043;41.766;26.204;2023-03-23T04:47:46;19.90;;;14.10;;
10007;SDS011;5043;41.766;26.204;2023-03-23T04:50:22;24.08;;;16.20;;
10007;SDS011;5043;41.766;26.204;2023-03-23T04:52:49;21.70;;;14.50;;
10007;SDS011;5043;41.766;26.204;2023-03-23T04:55:16;19.63;;;15.20;;
10007;SDS011;5043;41.766;26.204;2023-03-23T04:57:43;20.85;;;16.50;;
10007;SDS011;5043;41.766;26.204;2023-03-23T05:00:09;29.88;;;15.88;;
10007;SDS011;5043;41.766;26.204;2023-03-23T05:02:41;21.13;;;17.05;;
10007;SDS011;5043;41.766;26.204;2023-03-23T05:05:11;23.15;;;17.02;;
10007;SDS011;5043;41.766;26.204;2023-03-23T05:07:39;19.30;;;16.67;;
10007;SDS011;5043;41.766;26.204;2023-03-23T05:10:06;24.58;;;19.00;;
10007;SDS011;5043;41.766;26.204;2023-03-23T05:12:33;30.42;;;21.50;;
10007;SDS011;5043;41.766;26.204;2023-03-23T05:14:59;26.90;;;19.92;;
10007;SDS011;5043;41.766;26.204;2023-03-23T05:17:24;31.02;;;20.38;;
10007;SDS011;5043;41.766;26.204;2023-03-23T05:19:53;25.15;;;18.60;;
10007;SDS011;5043;41.766;26.204;2023-03-23T05:22:21;22.15;;;18.52;;
10007;SDS011;5043;41.766;26.204;2023-03-23T05:24:47;22.55;;;20.08;;
10007;SDS011;5043;41.766;26.204;2023-03-23T05:27:16;24.02;;;20.23;;
10007;SDS011;5043;41.766;26.204;2023-03-23T05:29:42;23.10;;;20.60;;
10007;SDS011;5043;41.766;26.204;2023-03-23T05:32:08;28.38;;;22.55;;
10007;SDS011;5043;41.766;26.204;2023-03-23T05:34:34;27.00;;;22.80;;
10007;SDS011;5043;41.766;26.204;2023-03-23T05:37:00;24.63;;;21.58;;
10007;SDS011;5043;41.766;26.204;2023-03-23T05:39:30;26.67;;;21.50;;
10007;SDS011;5043;41.766;26.204;2023-03-23T05:41:57;26.15;;;21.85;;
10007;SDS011;5043;41.766;26.204;2023-03-23T05:44:23;25.58;;;19.73;;
10007;SDS011;5043;41.766;26.204;2023-03-23T05:46:49;21.60;;;19.15;;
10007;SDS011;5043;41.766;26.204;2023-03-23T05:49:15;25.67;;;19.65;;
10007;SDS011;5043;41.766;26.204;2023-03-23T05:51:41;22.42;;;18.83;;
10007;SDS011;5043;41.766;26.204;2023-03-23T05:54:07;24.77;;;20.05;;
10007;SDS011;5043;41.766;26.204;2023-03-23T05:56:34;22.42;;;19.02;;
10007;SDS011;5043;41.766;26.204;2023-03-23T05:59:00;29.02;;;19.88;;
10007;SDS011;5043;41.766;26.204;2023-03-23T06:01:26;26.27;;;19.52;;
10007;SDS011;5043;41.766;26.204;2023-03-23T06:03:51;22.92;;;18.42;;
10007;SDS011;5043;41.766;26.204;2023-03-23T06:06:19;25.38;;;19.58;;
10007;SDS011;5043;41.766;26.204;2023-03-23T06:08:45;24.33;;;19.92;;
10007;SDS011;5043;41.766;26.204;2023-03-23T06:11:11;25.83;;;21.40;;
10007;SDS011;5043;41.766;26.204;2023-03-23T06:13:38;22.52;;;19.35;;
10007;SDS011;5043;41.766;26.204;2023-03-23T06:16:03;23.10;;;19.58;;
10007;SDS011;5043;41.766;26.204;2023-03-23T06:18:29;22.48;;;18.13;;
10007;SDS011;5043;41.766;26.204;2023-03-23T06:20:58;20.42;;;18.33;;
10007;SDS011;5043;41.766;26.204;2023-03-23T06:23:25;19.00;;;15.77;;
10007;SDS011;5043;41.766;26.204;2023-03-23T06:25:54;17.48;;;14.50;;
10007;SDS011;5043;41.766;26.204;2023-03-23T06:28:22;17.90;;;15.15;;
10007;SDS011;5043;41.766;26.204;2023-03-23T06:30:48;18.15;;;15.45;;
10007;SDS011;5043;41.766;26.204;2023-03-23T06:33:13;16.98;;;15.15;;
10007;SDS011;5043;41.766;26.204;2023-03-23T06:35:39;17.13;;;13.82;;
10007;SDS011;5043;41.766;26.204;2023-03-23T06:38:04;18.80;;;15.13;;
10007;SDS011;5043;41.766;26.204;2023-03-23T06:40:29;16.60;;;14.55;;
10007;SDS011;5043;41.766;26.204;2023-03-23T06:42:58;15.60;;;13.90;;
10007;SDS011;5043;41.766;26.204;2023-03-23T06:45:26;19.58;;;13.88;;
10007;SDS011;5043;41.766;26.204;2023-03-23T06:47:52;18.38;;;14.50;;
10007;SDS011;5043;41.766;26.204;2023-03-23T06:50:17;16.38;;;12.98;;
10007;SDS011;5043;41.766;26.204;2023-03-23T06:52:46;16.92;;;13.38;;
10007;SDS011;5043;41.766;26.204;2023-03-23T06:55:13;17.13;;;13.15;;
10007;SDS011;5043;41.766;26.204;2023-03-23T06:57:39;17.25;;;11.85;;
10007;SDS011;5043;41.766;26.204;2023-03-23T07:00:05;13.85;;;11.75;;
10007;SDS011;5043;41.766;26.204;2023-03-23T07:02:33;12.38;;;11.05;;
10007;SDS011;5043;41.766;26.204;2023-03-23T07:04:59;12.05;;;10.27;;
10007;SDS011;5043;41.766;26.204;2023-03-23T07:07:25;13.05;;;11.23;;
10007;SDS011;5043;41.766;26.204;2023-03-23T07:09:51;12.30;;;10.98;;
10007;SDS011;5043;41.766;26.204;2023-03-23T07:12:16;13.15;;;10.52;;
10007;SDS011;5043;41.766;26.204;2023-03-23T07:14:42;11.68;;;10.05;;
10007;SDS011;5043;41.766;26.204;2023-03-23T07:17:07;12.40;;;10.00;;
10007;SDS011;5043;41.766;26.204;2023-03-23T07:19:33;13.25;;;10.88;;
10007;SDS011;5043;41.766;26.204;2023-03-23T07:21:58;13.85;;;11.07;;
10007;SDS011;5043;41.766;26.204;2023-03-23T07:24:24;11.93;;;10.13;;
10007;SDS011;5043;41.766;26.204;2023-03-23T07:26:50;15.38;;;11.98;;
10007;SDS011;5043;41.766;26.204;2023-03-23T07:29:16;14.60;;;11.10;;
10007;SDS011;5043;41.766;26.204;2023-03-23T07:31:41;13.35;;;11.05;;
10007;SDS011;5043;41.766;26.204;2023-03-23T07:45:16;10.63;;;9.52;;
10007;SDS011;5043;41.766;26.204;2023-03-23T07:47:42;15.55;;;13.73;;
10007;SDS011;5043;41.766;26.204;2023-03-23T07:50:07;14.10;;;12.35;;
10007;SDS011;5043;41.766;26.204;2023-03-23T07:52:34;15.23;;;13.63;;
10007;SDS011;5043;41.766;26.204;2023-03-23T07:55:01;18.60;;;15.18;;
10007;SDS011;5043;41.766;26.204;2023-03-23T07:57:29;11.93;;;10.68;;
10007;SDS011;5043;41.766;26.204;2023-03-23T07:59:56;11.23;;;10.02;;
10007;SDS011;5043;41.766;26.204;2023-03-23T08:02:23;11.52;;;10.35;;
10007;SDS011;5043;41.766;26.204;2023-03-23T08:04:51;13.93;;;12.52;;
10007;SDS011;5043;41.766;26.204;2023-03-23T08:07:18;12.80;;;11.48;;
10007;SDS011;5043;41.766;26.204;2023-03-23T08:09:45;13.93;;;12.10;;
10007;SDS011;5043;41.766;26.204;2023-03-23T08:12:13;15.15;;;12.55;;
10007;SDS011;5043;41.766;26.204;2023-03-23T08:14:38;14.70;;;12.05;;
10007;SDS011;5043;41.766;26.204;2023-03-23T08:17:06;25.05;;;20.63;;
10007;SDS011;5043;41.766;26.204;2023-03-23T08:19:33;11.93;;;10.63;;
10007;SDS011;5043;41.766;26.204;2023-03-23T08:22:02;13.82;;;11.38;;
10007;SDS011;5043;41.766;26.204;2023-03-23T08:24:29;17.48;;;14.43;;
10007;SDS011;5043;41.766;26.204;2023-03-23T08:26:55;14.52;;;13.02;;
10007;SDS011;5043;41.766;26.204;2023-03-23T08:29:20;15.10;;;13.38;;
10007;SDS011;5043;41.766;26.204;2023-03-23T08:31:45;16.08;;;12.05;;
10007;SDS011;5043;41.766;26.204;2023-03-23T08:34:12;17.50;;;14.70;;
10007;SDS011;5043;41.766;26.204;2023-03-23T08:36:38;14.60;;;11.63;;
10007;SDS011;5043;41.766;26.204;2023-03-23T08:39:03;12.75;;;11.50;;
10007;SDS011;5043;41.766;26.204;2023-03-23T08:41:30;12.45;;;10.75;;
10007;SDS011;5043;41.766;26.204;2023-03-23T08:43:56;13.95;;;10.88;;
10007;SDS011;5043;41.766;26.204;2023-03-23T08:46:22;10.02;;;9.02;;
10007;SDS011;5043;41.766;26.204;2023-03-23T08:48:48;11.73;;;9.07;;
10007;SDS011;5043;41.766;26.204;2023-03-23T08:51:13;11.43;;;9.90;;
10007;SDS011;5043;41.766;26.204;2023-03-23T08:53:39;12.40;;;9.63;;
10007;SDS011;5043;41.766;26.204;2023-03-23T08:56:05;12.60;;;11.10;;
10007;SDS011;5043;41.766;26.204;2023-03-23T08:58:33;11.18;;;9.93;;
10007;SDS011;5043;41.766;26.204;2023-03-23T09:01:03;12.13;;;9.07;;
10007;SDS011;5043;41.766;26.204;2023-03-23T09:03:31;15.32;;;8.65;;
10007;SDS011;5043;41.766;26.204;2023-03-23T09:05:58;10.07;;;9.15;;
10007;SDS011;5043;41.766;26.204;2023-03-23T09:08:25;10.93;;;9.45;;
10007;SDS011;5043;41.766;26.204;2023-03-23T09:10:54;9.20;;;8.30;;
10007;SDS011;5043;41.766;26.204;2023-03-23T09:13:29;7.97;;;7.22;;
10007;SDS011;5043;41.766;26.204;2023-03-23T09:15:56;8.45;;;7.53;;
10007;SDS011;5043;41.766;26.204;2023-03-23T09:18:22;9.00;;;8.10;;
10007;SDS011;5043;41.766;26.204;2023-03-23T09:20:51;9.38;;;7.97;;
10007;SDS011;5043;41.766;26.204;2023-03-23T09:23:18;10.10;;;7.07;;
10007;SDS011;5043;41.766;26.204;2023-03-23T09:25:45;8.68;;;7.75;;
10007;SDS011;5043;41.766;26.204;2023-03-23T09:28:11;11.02;;;8.18;;
10007;SDS011;5043;41.766;26.204;2023-03-23T09:30:37;13.80;;;9.10;;
10007;SDS011;5043;41.766;26.204;2023-03-23T09:33:04;17.40;;;13.02;;
10007;SDS011;5043;41.766;26.204;2023-03-23T09:35:31;9.25;;;8.35;;
10007;SDS011;5043;41.766;26.204;2023-03-23T09:37:59;9.60;;;6.90;;
10007;SDS011;5043;41.766;26.204;2023-03-23T09:48:34;7.93;;;7.13;;
10007;SDS011;5043;41.766;26.204;2023-03-23T09:54:21;7.93;;;7.03;;
10007;SDS011;5043;41.766;26.204;2023-03-23T09:56:51;7.85;;;6.78;;
10007;SDS011;5043;41.766;26.204;2023-03-23T10:02:01;7.15;;;6.45;;
10007;SDS011;5043;41.766;26.204;2023-03-23T10:04:37;8.77;;;7.88;;
10007;SDS011;5043;41.766;26.204;2023-03-23T10:07:19;11.68;;;7.07;;
10007;SDS011;5043;41.766;26.204;2023-03-23T10:09:57;8.07;;;5.88;;
10007;SDS011;5043;41.766;26.204;2023-03-23T10:26:02;12.55;;;8.45;;
10007;SDS011;5043;41.766;26.204;2023-03-23T10:28:40;8.70;;;6.70;;
10007;SDS011;5043;41.766;26.204;2023-03-23T10:31:10;12.95;;;8.02;;
10007;SDS011;5043;41.766;26.204;2023-03-23T10:33:44;19.27;;;14.65;;
10007;SDS011;5043;41.766;26.204;2023-03-23T10:38:56;7.35;;;6.65;;
10007;SDS011;5043;41.766;26.204;2023-03-23T10:41:29;9.27;;;7.43;;
10007;SDS011;5043;41.766;26.204;2023-03-23T10:43:55;5.68;;;5.18;;
10007;SDS011;5043;41.766;26.204;2023-03-23T10:49:13;6.43;;;4.13;;
10007;SDS011;5043;41.766;26.204;2023-03-23T10:51:46;5.03;;;4.53;;
10007;SDS011;5043;41.766;26.204;2023-03-23T10:54:31;6.78;;;5.00;;
10007;SDS011;5043;41.766;26.204;2023-03-23T10:57:11;5.80;;;3.63;;
10007;SDS011;5043;41.766;26.204;2023-03-23T11:00:03;4.78;;;4.28;;
10007;SDS011;5043;41.766;26.204;2023-03-23T11:02:39;14.50;;;8.40;;
10007;SDS011;5043;41.766;26.204;2023-03-23T11:05:16;12.25;;;6.63;;
10007;SDS011;5043;41.766;26.204;2023-03-23T11:07:47;5.30;;;4.43;;
10007;SDS011;5043;41.766;26.204;2023-03-23T11:10:23;4.82;;;4.20;;
10007;SDS011;5043;41.766;26.204;2023-03-23T11:12:56;11.30;;;5.00;;
10007;SDS011;5043;41.766;26.204;2023-03-23T11:18:34;6.45;;;4.30;;
10007;SDS011;5043;41.766;26.204;2023-03-23T11:21:03;5.07;;;3.95;;
10007;SDS011;5043;41.766;26.204;2023-03-23T11:23:34;5.18;;;4.68;;
10007;SDS011;5043;41.766;26.204;2023-03-23T11:28:45;7.63;;;5.13;;
10007;SDS011;5043;41.766;26.204;2023-03-23T11:31:16;7.45;;;6.18;;
10007;SDS011;5043;41.766;26.204;2023-03-23T11:36:20;6.85;;;6.07;;
10007;SDS011;5043;41.766;26.204;2023-03-23T11:38:54;7.05;;;4.43;;
10007;SDS011;5043;41.766;26.204;2023-03-23T11:41:22;6.38;;;4.50;;
10007;SDS011;5043;41.766;26.204;2023-03-23T11:43:50;6.57;;;4.88;;
10007;SDS011;5043;41.766;26.204;2023-03-23T11:49:01;3.53;;;3.10;;
10007;SDS011;5043;41.766;26.204;2023-03-23T11:51:34;3.65;;;2.75;;
10007;SDS011;5043;41.766;26.204;2023-03-23T11:54:41;3.30;;;3.00;;
10007;SDS011;5043;41.766;26.204;2023-03-23T11:57:09;3.90;;;3.60;;
10007;SDS011;5043;41.766;26.204;2023-03-23T11:59:39;7.15;;;4.00;;
10007;SDS011;5043;41.766;26.204;2023-03-23T12:07:52;4.78;;;4.28;;
10007;SDS011;5043;41.766;26.204;2023-03-23T12:45:43;14.25;;;8.65;;
10007;SDS011;5043;41.766;26.204;2023-03-23T12:48:23;6.38;;;5.43;;
10007;SDS011;5043;41.766;26.204;2023-03-23T12:53:41;7.35;;;5.72;;
10007;SDS011;5043;41.766;26.204;2023-03-23T12:58:45;4.30;;;3.90;;
10007;SDS011;5043;41.766;26.204;2023-03-23T13:11:36;7.25;;;5.10;;
10007;SDS011;5043;41.766;26.204;2023-03-23T13:14:08;13.10;;;6.55;;
10007;SDS011;5043;41.766;26.204;2023-03-23T13:19:53;5.22;;;4.03;;
10007;SDS011;5043;41.766;26.204;2023-03-23T13:24:56;17.42;;;7.50;;
10007;SDS011;5043;41.766;26.204;2023-03-23T13:27:29;14.07;;;6.85;;
10007;SDS011;5043;41.766;26.204;2023-03-23T13:29:58;6.03;;;4.18;;
10007;SDS011;5043;41.766;26.204;2023-03-23T13:32:39;6.97;;;3.70;;
10007;SDS011;5043;41.766;26.204;2023-03-23T13:35:11;6.05;;;4.70;;
10007;SDS011;5043;41.766;26.204;2023-03-23T13:37:50;7.03;;;6.07;;
10007;SDS011;5043;41.766;26.204;2023-03-23T13:40:26;6.43;;;5.47;;
10007;SDS011;5043;41.766;26.204;2023-03-23T13:42:55;4.32;;;3.72;;
10007;SDS011;5043;41.766;26.204;2023-03-23T13:48:04;5.95;;;5.35;;
10007;SDS011;5043;41.766;26.204;2023-03-23T13:50:55;5.20;;;4.72;;
10007;SDS011;5043;41.766;26.204;2023-03-23T13:56:16;4.30;;;3.90;;
10007;SDS011;5043;41.766;26.204;2023-03-23T13:59:07;4.18;;;3.78;;
10007;SDS011;5043;41.766;26.204;2023-03-23T14:01:39;4.25;;;3.85;;
10007;SDS011;5043;41.766;26.204;2023-03-23T14:04:15;4.05;;;3.63;;
10007;SDS011;5043;41.766;26.204;2023-03-23T14:06:43;3.67;;;3.38;;
10007;SDS011;5043;41.766;26.204;2023-03-23T14:12:00;3.83;;;3.22;;
10007;SDS011;5043;41.766;26.204;2023-03-23T14:14:50;4.32;;;3.47;;
10007;SDS011;5043;41.766;26.204;2023-03-23T14:17:28;2.80;;;2.60;;
10007;SDS011;5043;41.766;26.204;2023-03-23T14:19:55;5.70;;;3.65;;
10007;SDS011;5043;41.766;26.204;2023-03-23T14:22:27;4.80;;;4.30;;
10007;SDS011;5043;41.766;26.204;2023-03-23T14:24:59;5.25;;;4.60;;
10007;SDS011;5043;41.766;26.204;2023-03-23T14:27:46;4.43;;;4.03;;
10007;SDS011;5043;41.766;26.204;2023-03-23T14:30:16;7.35;;;6.28;;
10007;SDS011;5043;41.766;26.204;2023-03-23T14:32:45;6.55;;;5.25;;
10007;SDS011;5043;41.766;26.204;2023-03-23T14:35:17;5.28;;;4.43;;
10007;SDS011;5043;41.766;26.204;2023-03-23T14:37:48;4.97;;;3.92;;
10007;SDS011;5043;41.766;26.204;2023-03-23T14:40:16;4.70;;;4.20;;
10007;SDS011;5043;41.766;26.204;2023-03-23T14:42:43;6.25;;;5.07;;
10007;SDS011;5043;41.766;26.204;2023-03-23T14:45:17;7.32;;;5.47;;
10007;SDS011;5043;41.766;26.204;2023-03-23T14:47:54;5.93;;;4.30;;
10007;SDS011;5043;41.766;26.204;2023-03-23T14:53:57;4.65;;;4.00;;
10007;SDS011;5043;41.766;26.204;2023-03-23T14:56:14;9.93;;;6.22;;
10007;SDS011;5043;41.766;26.204;2023-03-23T14:58:48;16.45;;;10.90;;
10007;SDS011;5043;41.766;26.204;2023-03-23T15:01:20;12.10;;;7.90;;
10007;SDS011;5043;41.766;26.204;2023-03-23T15:03:59;6.93;;;5.57;;
10007;SDS011;5043;41.766;26.204;2023-03-23T15:06:32;7.22;;;5.90;;
10007;SDS011;5043;41.766;26.204;2023-03-23T15:09:00;5.57;;;5.07;;
10007;SDS011;5043;41.766;26.204;2023-03-23T15:11:32;6.95;;;4.70;;
10007;SDS011;5043;41.766;26.204;2023-03-23T15:14:02;7.10;;;5.05;;
10007;SDS011;5043;41.766;26.204;2023-03-23T15:16:34;7.53;;;6.38;;
10007;SDS011;5043;41.766;26.204;2023-03-23T15:23:51;23.98;;;13.95;;
10007;SDS011;5043;41.766;26.204;2023-03-23T15:29:32;10.30;;;8.00;;
10007;SDS011;5043;41.766;26.204;2023-03-23T15:31:52;7.57;;;6.28;;
10007;SDS011;5043;41.766;26.204;2023-03-23T15:34:40;13.38;;;7.50;;
10007;SDS011;5043;41.766;26.204;2023-03-23T15:37:29;15.55;;;6.90;;
10007;SDS011;5043;41.766;26.204;2023-03-23T15:39:55;9.13;;;5.40;;
10007;SDS011;5043;41.766;26.204;2023-03-23T15:42:27;6.43;;;5.15;;
10007;SDS011;5043;41.766;26.204;2023-03-23T15:47:34;6.85;;;3.85;;
10007;SDS011;5043;41.766;26.204;2023-03-23T15:52:52;7.70;;;4.90;;
10007;SDS011;5043;41.766;26.204;2023-03-23T15:57:54;12.75;;;8.65;;
10007;SDS011;5043;41.766;26.204;2023-03-23T16:00:22;7.43;;;6.15;;
10007;SDS011;5043;41.766;26.204;2023-03-23T16:02:52;22.65;;;15.50;;
10007;SDS011;5043;41.766;26.204;2023-03-23T16:05:21;21.50;;;15.50;;
10007;SDS011;5043;41.766;26.204;2023-03-23T16:07:46;18.80;;;12.35;;
10007;SDS011;5043;41.766;26.204;2023-03-23T16:10:14;13.45;;;9.88;;
10007;SDS011;5043;41.766;26.204;2023-03-23T16:12:44;15.65;;;10.82;;
10007;SDS011;5043;41.766;26.204;2023-03-23T16:15:11;17.88;;;12.80;;
10007;SDS011;5043;41.766;26.204;2023-03-23T16:17:37;7.93;;;6.70;;
10007;SDS011;5043;41.766;26.204;2023-03-23T16:20:13;8.95;;;6.25;;
10007;SDS011;5043;41.766;26.204;2023-03-23T16:22:40;8.20;;;6.57;;
10007;SDS011;5043;41.766;26.204;2023-03-23T16:25:06;9.25;;;7.72;;
10007;SDS011;5043;41.766;26.204;2023-03-23T16:27:32;12.88;;;9.52;;
10007;SDS011;5043;41.766;26.204;2023-03-23T16:29:58;31.73;;;21.50;;
10007;SDS011;5043;41.766;26.204;2023-03-23T16:32:24;27.73;;;18.67;;
10007;SDS011;5043;41.766;26.204;2023-03-23T16:34:50;25.27;;;18.17;;
10007;SDS011;5043;41.766;26.204;2023-03-23T16:37:16;23.67;;;18.52;;
10007;SDS011;5043;41.766;26.204;2023-03-23T16:39:42;13.68;;;10.65;;
10007;SDS011;5043;41.766;26.204;2023-03-23T16:42:07;9.98;;;8.68;;
10007;SDS011;5043;41.766;26.204;2023-03-23T16:44:33;11.82;;;9.25;;
10007;SDS011;5043;41.766;26.204;2023-03-23T16:46:59;14.85;;;9.63;;
10007;SDS011;5043;41.766;26.204;2023-03-23T16:49:24;14.30;;;10.15;;
10007;SDS011;5043;41.766;26.204;2023-03-23T16:51:49;12.48;;;9.63;;
10007;SDS011;5043;41.766;26.204;2023-03-23T16:54:15;13.73;;;10.55;;
10007;SDS011;5043;41.766;26.204;2023-03-23T16:56:40;12.43;;;9.38;;
10007;SDS011;5043;41.766;26.204;2023-03-23T16:59:10;9.27;;;7.88;;
10007;SDS011;5043;41.766;26.204;2023-03-23T17:01:36;12.38;;;9.55;;
10007;SDS011;5043;41.766;26.204;2023-03-23T17:04:02;15.40;;;9.23;;
10007;SDS011;5043;41.766;26.204;2023-03-23T17:06:28;17.30;;;12.07;;
10007;SDS011;5043;41.766;26.204;2023-03-23T17:08:53;17.08;;;13.57;;
10007;SDS011;5043;41.766;26.204;2023-03-23T17:11:19;11.90;;;10.18;;
10007;SDS011;5043;41.766;26.204;2023-03-23T17:13:44;13.75;;;9.90;;
10007;SDS011;5043;41.766;26.204;2023-03-23T17:16:10;9.02;;;7.95;;
10007;SDS011;5043;41.766;26.204;2023-03-23T17:18:35;20.98;;;14.55;;
10007;SDS011;5043;41.766;26.204;2023-03-23T17:21:01;19.40;;;13.25;;
10007;SDS011;5043;41.766;26.204;2023-03-23T17:23:26;11.60;;;9.35;;
10007;SDS011;5043;41.766;26.204;2023-03-23T17:25:53;9.57;;;8.07;;
10007;SDS011;5043;41.766;26.204;2023-03-23T17:28:18;9.38;;;8.02;;
10007;SDS011;5043;41.766;26.204;2023-03-23T17:30:44;14.15;;;9.77;;
10007;SDS011;5043;41.766;26.204;2023-03-23T17:33:10;18.67;;;14.65;;